메인 페이지
METAR-TAF:

METAR-TAF

공항 :

애빌린, 텍사스, 미국

위도: 32-25-12N, 경도: 099-51-25W, 고도: 545m

현재 날씨관측

예보는 19분 전, 11:56시(UTC)에 발표되었습니다.
무풍
온도 -5°C
습도 79%
기압 1031 hPa
시정: 16.1km
맑음

METAR: KDYS 141156Z AUTO 00000KT 10SM CLR M05/M08 A3046 RMK AO2 SLP339 T10491085 11021 21064 55006 $

시각: 06:15 (12:15 UTC)

예보

예보는 1 시간 18분 전, 10:57시(UTC)에 발표되었습니다.
예보 대상 시간: 14일 10시부터 15일 15시까지 (UTC)
서남서6kt
시정 10km 이상
맑음
전환 중
14일 14시부터 14일 15시까지 (UTC)
12kt
시정 10km 이상
맑음
전환 중
14일 23시부터 14일 24시까지 (UTC)
북북동6kt
시정 10km 이상
맑음

TAF: KDYS 141057Z 1410/1515 24006KT 9999 SKC QNH3045INS BECMG 1414/1415 27012KT 9999 SKC QNH3032INS BECMG 1423/1424 02006KT 9999 SKC QNH3024INS TX12/1420Z TNM05/1410Z

4,000개 이상의 공항 관측 자료 및 예보 (METAR 및 TAF 보고).

지도상에서 검색 가능한 기상관측소가 노란 점과 빨간 점으로 표시되어 있습니다.

기상관측소 명을 보려면 표시 위로 마우스를 이동하세요.

날씨 관측과 예보를 보려면 클릭하세요.

지도 변경 : 확대하려면 엑스 표시가 있는 녹색 버튼, 축소하려면 빼기 표시가 있는 녹색 버튼, 다음 페이지의 지도를 보려면 녹색 화살표를 클릭하세요.


METAR-TAF: